sensor_id;sensor_type;location;lat;lon;timestamp;P1;durP1;ratioP1;P2;durP2;ratioP2
62457;SDS011;48509;52.122;5.250;2022-08-02T00:00:03;7.6;;;2.1;;
62457;SDS011;48509;52.122;5.250;2022-08-02T00:01:51;5.2;;;2.21;;
62457;SDS011;48509;52.122;5.250;2022-08-02T00:03:38;3.7;;;2.0;;
62457;SDS011;48509;52.122;5.250;2022-08-02T00:05:24;4.3;;;2.1;;
62457;SDS011;48509;52.122;5.250;2022-08-02T00:07:11;5.8;;;2.4;;
62457;SDS011;48509;52.122;5.250;2022-08-02T00:10:47;5.9;;;2.31;;
62457;SDS011;48509;52.122;5.250;2022-08-02T00:12:34;6.2;;;1.8;;
62457;SDS011;48509;52.122;5.250;2022-08-02T00:14:21;2.31;;;1.8;;
62457;SDS011;48509;52.122;5.250;2022-08-02T00:16:07;8.6;;;2.6;;
62457;SDS011;48509;52.122;5.250;2022-08-02T00:17:54;9.5;;;2.5;;
62457;SDS011;48509;52.122;5.250;2022-08-02T00:19:42;4.0;;;2.4;;
62457;SDS011;48509;52.122;5.250;2022-08-02T00:23:17;4.91;;;2.1;;
62457;SDS011;48509;52.122;5.250;2022-08-02T00:25:05;5.8;;;2.0;;
62457;SDS011;48509;52.122;5.250;2022-08-02T00:26:52;6.9;;;2.5;;
62457;SDS011;48509;52.122;5.250;2022-08-02T00:28:38;4.1;;;2.4;;
62457;SDS011;48509;52.122;5.250;2022-08-02T00:30:25;7.5;;;2.4;;
62457;SDS011;48509;52.122;5.250;2022-08-02T00:32:11;5.0;;;2.31;;
62457;SDS011;48509;52.122;5.250;2022-08-02T00:35:46;6.4;;;2.6;;
62457;SDS011;48509;52.122;5.250;2022-08-02T00:37:32;4.41;;;2.21;;
62457;SDS011;48509;52.122;5.250;2022-08-02T00:39:23;8.5;;;2.31;;
62457;SDS011;48509;52.122;5.250;2022-08-02T00:41:10;5.8;;;2.7;;
62457;SDS011;48509;52.122;5.250;2022-08-02T00:42:59;6.9;;;2.7;;
62457;SDS011;48509;52.122;5.250;2022-08-02T00:44:47;6.1;;;2.7;;
62457;SDS011;48509;52.122;5.250;2022-08-02T00:48:19;4.8;;;2.7;;
62457;SDS011;48509;52.122;5.250;2022-08-02T00:50:06;4.91;;;2.6;;
62457;SDS011;48509;52.122;5.250;2022-08-02T00:51:53;5.5;;;2.5;;
62457;SDS011;48509;52.122;5.250;2022-08-02T00:53:39;7.8;;;2.6;;
62457;SDS011;48509;52.122;5.250;2022-08-02T00:55:25;4.91;;;2.31;;
62457;SDS011;48509;52.122;5.250;2022-08-02T00:58:58;7.8;;;2.4;;
62457;SDS011;48509;52.122;5.250;2022-08-02T01:00:45;5.4;;;2.6;;
62457;SDS011;48509;52.122;5.250;2022-08-02T01:02:33;5.11;;;2.5;;
62457;SDS011;48509;52.122;5.250;2022-08-02T01:04:19;4.5;;;2.4;;
62457;SDS011;48509;52.122;5.250;2022-08-02T01:06:05;8.1;;;2.5;;
62457;SDS011;48509;52.122;5.250;2022-08-02T01:07:52;5.3;;;2.5;;
62457;SDS011;48509;52.122;5.250;2022-08-02T01:13:13;4.3;;;2.5;;
62457;SDS011;48509;52.122;5.250;2022-08-02T01:15:00;5.6;;;2.6;;
62457;SDS011;48509;52.122;5.250;2022-08-02T01:16:53;5.5;;;2.6;;
62457;SDS011;48509;52.122;5.250;2022-08-02T01:18:49;4.7;;;2.6;;
62457;SDS011;48509;52.122;5.250;2022-08-02T01:20:48;5.3;;;2.6;;
62457;SDS011;48509;52.122;5.250;2022-08-02T01:23:25;6.7;;;2.4;;
62457;SDS011;48509;52.122;5.250;2022-08-02T01:25:27;6.1;;;2.4;;
62457;SDS011;48509;52.122;5.250;2022-08-02T01:27:32;7.2;;;2.7;;
62457;SDS011;48509;52.122;5.250;2022-08-02T01:29:32;6.6;;;2.5;;
62457;SDS011;48509;52.122;5.250;2022-08-02T01:31:25;7.5;;;2.8;;
62457;SDS011;48509;52.122;5.250;2022-08-02T01:33:20;5.2;;;2.0;;
62457;SDS011;48509;52.122;5.250;2022-08-02T01:35:12;7.4;;;2.5;;
62457;SDS011;48509;52.122;5.250;2022-08-02T01:37:06;7.4;;;2.5;;
62457;SDS011;48509;52.122;5.250;2022-08-02T01:40:46;4.0;;;2.1;;
62457;SDS011;48509;52.122;5.250;2022-08-02T01:42:37;6.1;;;2.5;;
62457;SDS011;48509;52.122;5.250;2022-08-02T01:44:31;4.61;;;2.0;;
62457;SDS011;48509;52.122;5.250;2022-08-02T01:46:22;6.8;;;2.4;;
62457;SDS011;48509;52.122;5.250;2022-08-02T01:48:12;7.6;;;2.21;;
62457;SDS011;48509;52.122;5.250;2022-08-02T01:50:01;3.7;;;2.1;;
62457;SDS011;48509;52.122;5.250;2022-08-02T01:52:24;6.5;;;2.1;;
62457;SDS011;48509;52.122;5.250;2022-08-02T01:54:17;4.61;;;1.9;;
62457;SDS011;48509;52.122;5.250;2022-08-02T01:56:06;9.1;;;2.4;;
62457;SDS011;48509;52.122;5.250;2022-08-02T01:57:57;6.1;;;2.21;;
62457;SDS011;48509;52.122;5.250;2022-08-02T02:01:36;5.8;;;2.31;;
62457;SDS011;48509;52.122;5.250;2022-08-02T02:03:24;6.6;;;1.9;;
62457;SDS011;48509;52.122;5.250;2022-08-02T02:05:13;9.5;;;2.21;;
62457;SDS011;48509;52.122;5.250;2022-08-02T02:07:08;4.8;;;1.9;;
62457;SDS011;48509;52.122;5.250;2022-08-02T02:08:57;5.4;;;2.21;;
62457;SDS011;48509;52.122;5.250;2022-08-02T02:10:45;5.8;;;2.0;;
62457;SDS011;48509;52.122;5.250;2022-08-02T02:14:21;6.0;;;2.1;;
62457;SDS011;48509;52.122;5.250;2022-08-02T02:16:10;4.3;;;2.1;;
62457;SDS011;48509;52.122;5.250;2022-08-02T02:18:00;3.3;;;1.9;;
62457;SDS011;48509;52.122;5.250;2022-08-02T02:19:48;5.6;;;2.31;;
62457;SDS011;48509;52.122;5.250;2022-08-02T02:21:38;4.3;;;2.0;;
62457;SDS011;48509;52.122;5.250;2022-08-02T02:23:24;6.5;;;2.21;;
62457;SDS011;48509;52.122;5.250;2022-08-02T02:25:11;5.0;;;2.0;;
62457;SDS011;48509;52.122;5.250;2022-08-02T02:28:52;4.91;;;2.0;;
62457;SDS011;48509;52.122;5.250;2022-08-02T02:30:42;5.2;;;1.9;;
62457;SDS011;48509;52.122;5.250;2022-08-02T02:32:33;8.81;;;2.21;;
62457;SDS011;48509;52.122;5.250;2022-08-02T02:34:24;5.9;;;2.0;;
62457;SDS011;48509;52.122;5.250;2022-08-02T02:36:14;4.5;;;1.8;;
62457;SDS011;48509;52.122;5.250;2022-08-02T02:38:04;6.4;;;1.8;;
62457;SDS011;48509;52.122;5.250;2022-08-02T02:40:03;4.7;;;2.1;;
62457;SDS011;48509;52.122;5.250;2022-08-02T02:41:51;4.7;;;2.1;;
62457;SDS011;48509;52.122;5.250;2022-08-02T02:45:29;9.4;;;1.9;;
62457;SDS011;48509;52.122;5.250;2022-08-02T02:47:18;6.9;;;2.1;;
62457;SDS011;48509;52.122;5.250;2022-08-02T02:49:06;4.8;;;1.8;;
62457;SDS011;48509;52.122;5.250;2022-08-02T02:50:56;5.11;;;2.1;;
62457;SDS011;48509;52.122;5.250;2022-08-02T02:52:45;3.9;;;1.9;;
62457;SDS011;48509;52.122;5.250;2022-08-02T02:54:33;5.3;;;1.7;;
62457;SDS011;48509;52.122;5.250;2022-08-02T02:58:10;3.3;;;1.8;;
62457;SDS011;48509;52.122;5.250;2022-08-02T02:59:58;4.91;;;1.9;;
62457;SDS011;48509;52.122;5.250;2022-08-02T03:01:46;5.8;;;1.9;;
62457;SDS011;48509;52.122;5.250;2022-08-02T03:03:32;5.9;;;1.9;;
62457;SDS011;48509;52.122;5.250;2022-08-02T03:05:20;5.9;;;1.9;;
62457;SDS011;48509;52.122;5.250;2022-08-02T03:07:06;4.41;;;1.7;;
62457;SDS011;48509;52.122;5.250;2022-08-02T03:10:41;4.2;;;1.7;;
62457;SDS011;48509;52.122;5.250;2022-08-02T03:12:30;4.8;;;2.1;;
62457;SDS011;48509;52.122;5.250;2022-08-02T03:14:19;3.8;;;1.6;;
62457;SDS011;48509;52.122;5.250;2022-08-02T03:16:06;3.8;;;1.6;;
62457;SDS011;48509;52.122;5.250;2022-08-02T03:17:53;5.11;;;1.9;;
62457;SDS011;48509;52.122;5.250;2022-08-02T03:19:39;4.1;;;1.7;;
62457;SDS011;48509;52.122;5.250;2022-08-02T03:23:11;3.7;;;1.8;;
62457;SDS011;48509;52.122;5.250;2022-08-02T03:24:58;3.7;;;1.8;;
62457;SDS011;48509;52.122;5.250;2022-08-02T03:26:44;2.8;;;1.7;;
62457;SDS011;48509;52.122;5.250;2022-08-02T03:28:31;5.2;;;2.0;;
62457;SDS011;48509;52.122;5.250;2022-08-02T03:30:18;4.1;;;1.6;;
62457;SDS011;48509;52.122;5.250;2022-08-02T03:32:04;6.2;;;1.9;;
62457;SDS011;48509;52.122;5.250;2022-08-02T03:35:40;5.5;;;1.7;;
62457;SDS011;48509;52.122;5.250;2022-08-02T03:37:28;5.6;;;1.8;;
62457;SDS011;48509;52.122;5.250;2022-08-02T03:39:16;4.8;;;1.7;;
62457;SDS011;48509;52.122;5.250;2022-08-02T03:41:05;8.6;;;1.9;;
62457;SDS011;48509;52.122;5.250;2022-08-02T03:42:53;5.8;;;1.8;;
62457;SDS011;48509;52.122;5.250;2022-08-02T03:44:40;4.2;;;1.8;;
62457;SDS011;48509;52.122;5.250;2022-08-02T03:48:17;5.6;;;2.1;;
62457;SDS011;48509;52.122;5.250;2022-08-02T03:50:04;7.0;;;2.21;;
62457;SDS011;48509;52.122;5.250;2022-08-02T03:51:54;7.5;;;2.0;;
62457;SDS011;48509;52.122;5.250;2022-08-02T03:53:41;7.1;;;2.1;;
62457;SDS011;48509;52.122;5.250;2022-08-02T03:55:29;7.4;;;2.1;;
62457;SDS011;48509;52.122;5.250;2022-08-02T03:57:16;6.1;;;2.0;;
62457;SDS011;48509;52.122;5.250;2022-08-02T04:00:54;6.1;;;2.1;;
62457;SDS011;48509;52.122;5.250;2022-08-02T04:02:43;7.5;;;2.1;;
62457;SDS011;48509;52.122;5.250;2022-08-02T04:04:29;4.1;;;2.0;;
62457;SDS011;48509;52.122;5.250;2022-08-02T04:06:16;9.21;;;2.0;;
62457;SDS011;48509;52.122;5.250;2022-08-02T04:08:02;6.6;;;1.8;;
62457;SDS011;48509;52.122;5.250;2022-08-02T04:09:48;5.11;;;1.9;;
62457;SDS011;48509;52.122;5.250;2022-08-02T04:13:20;6.3;;;2.0;;
62457;SDS011;48509;52.122;5.250;2022-08-02T04:15:10;4.61;;;2.0;;
62457;SDS011;48509;52.122;5.250;2022-08-02T04:17:00;4.3;;;2.21;;
62457;SDS011;48509;52.122;5.250;2022-08-02T04:18:57;6.3;;;1.9;;
62457;SDS011;48509;52.122;5.250;2022-08-02T04:20:47;6.2;;;1.9;;
62457;SDS011;48509;52.122;5.250;2022-08-02T04:22:38;5.0;;;1.8;;
62457;SDS011;48509;52.122;5.250;2022-08-02T04:24:37;7.0;;;2.1;;
62457;SDS011;48509;52.122;5.250;2022-08-02T04:26:25;5.9;;;2.1;;
62457;SDS011;48509;52.122;5.250;2022-08-02T04:30:02;4.7;;;2.1;;
62457;SDS011;48509;52.122;5.250;2022-08-02T04:31:50;5.7;;;2.0;;
62457;SDS011;48509;52.122;5.250;2022-08-02T04:33:38;4.2;;;1.9;;
62457;SDS011;48509;52.122;5.250;2022-08-02T04:35:24;7.7;;;2.21;;
62457;SDS011;48509;52.122;5.250;2022-08-02T04:37:11;4.91;;;2.0;;
62457;SDS011;48509;52.122;5.250;2022-08-02T04:38:59;6.3;;;2.5;;
62457;SDS011;48509;52.122;5.250;2022-08-02T04:42:37;4.7;;;1.9;;
62457;SDS011;48509;52.122;5.250;2022-08-02T04:44:25;9.81;;;2.6;;
62457;SDS011;48509;52.122;5.250;2022-08-02T04:46:11;6.7;;;2.5;;
62457;SDS011;48509;52.122;5.250;2022-08-02T04:47:58;11.4;;;2.31;;
62457;SDS011;48509;52.122;5.250;2022-08-02T04:49:44;6.0;;;2.21;;
62457;SDS011;48509;52.122;5.250;2022-08-02T04:51:33;5.11;;;2.1;;
62457;SDS011;48509;52.122;5.250;2022-08-02T04:55:07;5.0;;;2.0;;
62457;SDS011;48509;52.122;5.250;2022-08-02T04:56:54;6.3;;;2.1;;
62457;SDS011;48509;52.122;5.250;2022-08-02T04:58:40;4.91;;;2.31;;
62457;SDS011;48509;52.122;5.250;2022-08-02T05:00:27;5.6;;;2.0;;
62457;SDS011;48509;52.122;5.250;2022-08-02T05:02:15;3.6;;;2.1;;
62457;SDS011;48509;52.122;5.250;2022-08-02T05:05:49;3.5;;;2.0;;
62457;SDS011;48509;52.122;5.250;2022-08-02T05:07:35;4.7;;;2.0;;
62457;SDS011;48509;52.122;5.250;2022-08-02T05:09:21;4.61;;;2.21;;
62457;SDS011;48509;52.122;5.250;2022-08-02T05:11:07;3.7;;;2.21;;
62457;SDS011;48509;52.122;5.250;2022-08-02T05:12:53;3.7;;;2.4;;
62457;SDS011;48509;52.122;5.250;2022-08-02T05:14:40;8.31;;;2.6;;
62457;SDS011;48509;52.122;5.250;2022-08-02T05:18:13;4.91;;;2.4;;
62457;SDS011;48509;52.122;5.250;2022-08-02T05:19:59;5.8;;;2.6;;
62457;SDS011;48509;52.122;5.250;2022-08-02T05:21:45;8.5;;;2.9;;
62457;SDS011;48509;52.122;5.250;2022-08-02T05:23:32;5.4;;;2.31;;
62457;SDS011;48509;52.122;5.250;2022-08-02T05:25:19;5.0;;;2.4;;
62457;SDS011;48509;52.122;5.250;2022-08-02T05:28:51;6.8;;;2.6;;
62457;SDS011;48509;52.122;5.250;2022-08-02T05:30:37;5.4;;;2.4;;
62457;SDS011;48509;52.122;5.250;2022-08-02T05:32:25;8.1;;;2.6;;
62457;SDS011;48509;52.122;5.250;2022-08-02T05:34:11;8.1;;;2.8;;
62457;SDS011;48509;52.122;5.250;2022-08-02T05:35:58;11.0;;;2.9;;
62457;SDS011;48509;52.122;5.250;2022-08-02T05:37:44;10.21;;;2.7;;
62457;SDS011;48509;52.122;5.250;2022-08-02T05:41:18;5.9;;;2.9;;
62457;SDS011;48509;52.122;5.250;2022-08-02T05:43:09;8.81;;;2.4;;
62457;SDS011;48509;52.122;5.250;2022-08-02T05:44:57;6.7;;;2.7;;
62457;SDS011;48509;52.122;5.250;2022-08-02T05:46:44;6.3;;;2.8;;
62457;SDS011;48509;52.122;5.250;2022-08-02T05:48:31;7.3;;;2.8;;
62457;SDS011;48509;52.122;5.250;2022-08-02T05:50:18;7.3;;;2.8;;
62457;SDS011;48509;52.122;5.250;2022-08-02T05:54:01;5.9;;;3.0;;
62457;SDS011;48509;52.122;5.250;2022-08-02T05:56:00;4.41;;;2.6;;
62457;SDS011;48509;52.122;5.250;2022-08-02T05:57:55;7.6;;;3.2;;
62457;SDS011;48509;52.122;5.250;2022-08-02T05:59:54;9.71;;;3.2;;
62457;SDS011;48509;52.122;5.250;2022-08-02T06:01:49;6.4;;;3.2;;
62457;SDS011;48509;52.122;5.250;2022-08-02T06:03:43;6.8;;;3.2;;
62457;SDS011;48509;52.122;5.250;2022-08-02T06:05:39;5.3;;;3.4;;
62457;SDS011;48509;52.122;5.250;2022-08-02T06:07:26;8.2;;;3.2;;
62457;SDS011;48509;52.122;5.250;2022-08-02T06:09:15;8.31;;;3.5;;
62457;SDS011;48509;52.122;5.250;2022-08-02T06:11:02;10.7;;;3.6;;
62457;SDS011;48509;52.122;5.250;2022-08-02T06:14:50;7.0;;;3.2;;
62457;SDS011;48509;52.122;5.250;2022-08-02T06:16:39;6.6;;;3.1;;
62457;SDS011;48509;52.122;5.250;2022-08-02T06:18:28;6.9;;;3.3;;
62457;SDS011;48509;52.122;5.250;2022-08-02T06:20:18;9.6;;;3.9;;
62457;SDS011;48509;52.122;5.250;2022-08-02T06:22:14;8.6;;;3.4;;
62457;SDS011;48509;52.122;5.250;2022-08-02T06:24:01;7.6;;;3.8;;
62457;SDS011;48509;52.122;5.250;2022-08-02T06:25:49;6.9;;;4.3;;
62457;SDS011;48509;52.122;5.250;2022-08-02T06:29:26;13.6;;;5.0;;
62457;SDS011;48509;52.122;5.250;2022-08-02T06:31:16;8.9;;;3.6;;
62457;SDS011;48509;52.122;5.250;2022-08-02T06:33:03;11.3;;;4.8;;
62457;SDS011;48509;52.122;5.250;2022-08-02T06:34:49;11.1;;;4.2;;
62457;SDS011;48509;52.122;5.250;2022-08-02T06:36:37;12.8;;;5.5;;
62457;SDS011;48509;52.122;5.250;2022-08-02T06:38:33;9.9;;;4.8;;
62457;SDS011;48509;52.122;5.250;2022-08-02T06:40:26;6.8;;;4.1;;
62457;SDS011;48509;52.122;5.250;2022-08-02T06:44:15;12.1;;;4.5;;
62457;SDS011;48509;52.122;5.250;2022-08-02T06:46:02;7.5;;;4.2;;
62457;SDS011;48509;52.122;5.250;2022-08-02T06:47:49;9.5;;;4.2;;
62457;SDS011;48509;52.122;5.250;2022-08-02T06:49:35;10.8;;;5.2;;
62457;SDS011;48509;52.122;5.250;2022-08-02T06:51:23;10.9;;;5.6;;
62457;SDS011;48509;52.122;5.250;2022-08-02T06:53:09;11.2;;;6.0;;
62457;SDS011;48509;52.122;5.250;2022-08-02T06:56:45;12.1;;;5.6;;
62457;SDS011;48509;52.122;5.250;2022-08-02T06:58:32;10.1;;;5.2;;
62457;SDS011;48509;52.122;5.250;2022-08-02T07:00:18;12.5;;;5.7;;
62457;SDS011;48509;52.122;5.250;2022-08-02T07:02:04;8.1;;;5.6;;
62457;SDS011;48509;52.122;5.250;2022-08-02T07:03:50;12.2;;;5.9;;
62457;SDS011;48509;52.122;5.250;2022-08-02T07:05:36;9.31;;;5.2;;
62457;SDS011;48509;52.122;5.250;2022-08-02T07:09:11;10.4;;;5.6;;
62457;SDS011;48509;52.122;5.250;2022-08-02T07:10:57;10.21;;;6.0;;
62457;SDS011;48509;52.122;5.250;2022-08-02T07:12:44;11.3;;;6.8;;
62457;SDS011;48509;52.122;5.250;2022-08-02T07:14:30;15.2;;;6.8;;
62457;SDS011;48509;52.122;5.250;2022-08-02T07:16:16;12.4;;;7.0;;
62457;SDS011;48509;52.122;5.250;2022-08-02T07:18:02;11.8;;;6.9;;
62457;SDS011;48509;52.122;5.250;2022-08-02T07:21:36;10.21;;;6.6;;
62457;SDS011;48509;52.122;5.250;2022-08-02T07:23:22;14.6;;;6.6;;
62457;SDS011;48509;52.122;5.250;2022-08-02T07:25:08;11.0;;;6.6;;
62457;SDS011;48509;52.122;5.250;2022-08-02T07:26:55;12.3;;;7.6;;
62457;SDS011;48509;52.122;5.250;2022-08-02T07:28:42;8.9;;;6.7;;
62457;SDS011;48509;52.122;5.250;2022-08-02T07:32:17;17.41;;;8.2;;
62457;SDS011;48509;52.122;5.250;2022-08-02T07:34:06;13.0;;;8.0;;
62457;SDS011;48509;52.122;5.250;2022-08-02T07:35:53;12.2;;;7.6;;
62457;SDS011;48509;52.122;5.250;2022-08-02T07:37:41;13.8;;;8.71;;
62457;SDS011;48509;52.122;5.250;2022-08-02T07:39:29;19.3;;;8.5;;
62457;SDS011;48509;52.122;5.250;2022-08-02T07:41:15;11.4;;;8.1;;
62457;SDS011;48509;52.122;5.250;2022-08-02T07:44:48;13.7;;;8.31;;
62457;SDS011;48509;52.122;5.250;2022-08-02T07:46:35;17.11;;;9.0;;
62457;SDS011;48509;52.122;5.250;2022-08-02T07:48:21;11.0;;;8.0;;
62457;SDS011;48509;52.122;5.250;2022-08-02T07:50:08;15.7;;;9.71;;
62457;SDS011;48509;52.122;5.250;2022-08-02T07:51:55;15.7;;;9.71;;
62457;SDS011;48509;52.122;5.250;2022-08-02T07:53:42;17.0;;;10.7;;
62457;SDS011;48509;52.122;5.250;2022-08-02T07:57:15;17.5;;;10.6;;
62457;SDS011;48509;52.122;5.250;2022-08-02T07:59:02;19.7;;;11.4;;
62457;SDS011;48509;52.122;5.250;2022-08-02T08:00:49;16.0;;;10.0;;
62457;SDS011;48509;52.122;5.250;2022-08-02T08:02:35;15.9;;;10.0;;
62457;SDS011;48509;52.122;5.250;2022-08-02T08:04:22;13.8;;;8.5;;
62457;SDS011;48509;52.122;5.250;2022-08-02T08:06:08;24.5;;;9.5;;
62457;SDS011;48509;52.122;5.250;2022-08-02T08:09:42;17.8;;;10.5;;
62457;SDS011;48509;52.122;5.250;2022-08-02T08:11:29;15.7;;;10.9;;
62457;SDS011;48509;52.122;5.250;2022-08-02T08:13:15;13.9;;;10.21;;
62457;SDS011;48509;52.122;5.250;2022-08-02T08:15:03;14.8;;;10.0;;
62457;SDS011;48509;52.122;5.250;2022-08-02T08:16:50;11.5;;;8.5;;
62457;SDS011;48509;52.122;5.250;2022-08-02T08:20:24;14.2;;;8.71;;
62457;SDS011;48509;52.122;5.250;2022-08-02T08:22:10;12.6;;;8.6;;
62457;SDS011;48509;52.122;5.250;2022-08-02T08:23:56;10.6;;;7.3;;
62457;SDS011;48509;52.122;5.250;2022-08-02T08:25:43;13.2;;;7.7;;
62457;SDS011;48509;52.122;5.250;2022-08-02T08:27:29;11.3;;;6.6;;
62457;SDS011;48509;52.122;5.250;2022-08-02T08:29:16;11.2;;;6.2;;
62457;SDS011;48509;52.122;5.250;2022-08-02T08:32:50;10.8;;;5.7;;
62457;SDS011;48509;52.122;5.250;2022-08-02T08:34:36;8.81;;;4.8;;
62457;SDS011;48509;52.122;5.250;2022-08-02T08:36:22;9.71;;;5.4;;
62457;SDS011;48509;52.122;5.250;2022-08-02T08:38:09;11.2;;;6.8;;
62457;SDS011;48509;52.122;5.250;2022-08-02T08:39:55;8.31;;;5.8;;
62457;SDS011;48509;52.122;5.250;2022-08-02T08:41:42;7.5;;;5.3;;
62457;SDS011;48509;52.122;5.250;2022-08-02T08:45:17;7.8;;;5.8;;
62457;SDS011;48509;52.122;5.250;2022-08-02T08:47:03;11.2;;;6.2;;
62457;SDS011;48509;52.122;5.250;2022-08-02T08:48:51;9.4;;;5.7;;
62457;SDS011;48509;52.122;5.250;2022-08-02T08:50:40;7.0;;;5.7;;
62457;SDS011;48509;52.122;5.250;2022-08-02T08:52:42;7.5;;;5.4;;
62457;SDS011;48509;52.122;5.250;2022-08-02T08:54:35;8.1;;;5.11;;
62457;SDS011;48509;52.122;5.250;2022-08-02T08:56:23;9.1;;;4.61;;
62457;SDS011;48509;52.122;5.250;2022-08-02T09:00:05;6.8;;;4.3;;
62457;SDS011;48509;52.122;5.250;2022-08-02T09:01:55;5.3;;;3.9;;
62457;SDS011;48509;52.122;5.250;2022-08-02T09:03:42;3.9;;;3.5;;
62457;SDS011;48509;52.122;5.250;2022-08-02T09:05:31;4.61;;;3.6;;
62457;SDS011;48509;52.122;5.250;2022-08-02T09:07:21;6.9;;;4.1;;
62457;SDS011;48509;52.122;5.250;2022-08-02T09:09:07;6.9;;;4.61;;
62457;SDS011;48509;52.122;5.250;2022-08-02T09:12:40;7.7;;;5.8;;
62457;SDS011;48509;52.122;5.250;2022-08-02T09:14:27;9.1;;;5.11;;
62457;SDS011;48509;52.122;5.250;2022-08-02T09:16:14;7.5;;;5.2;;
62457;SDS011;48509;52.122;5.250;2022-08-02T09:18:13;7.0;;;5.4;;
62457;SDS011;48509;52.122;5.250;2022-08-02T09:20:06;10.3;;;5.6;;
62457;SDS011;48509;52.122;5.250;2022-08-02T09:21:59;7.8;;;6.2;;
62457;SDS011;48509;52.122;5.250;2022-08-02T09:23:49;8.4;;;6.9;;
62457;SDS011;48509;52.122;5.250;2022-08-02T09:25:37;11.2;;;7.4;;
62457;SDS011;48509;52.122;5.250;2022-08-02T09:29:10;10.9;;;7.1;;
62457;SDS011;48509;52.122;5.250;2022-08-02T09:30:58;12.5;;;6.8;;
62457;SDS011;48509;52.122;5.250;2022-08-02T09:32:50;11.0;;;8.2;;
62457;SDS011;48509;52.122;5.250;2022-08-02T09:34:44;14.1;;;9.4;;
62457;SDS011;48509;52.122;5.250;2022-08-02T09:36:36;14.4;;;8.9;;
62457;SDS011;48509;52.122;5.250;2022-08-02T09:38:25;15.4;;;9.21;;
62457;SDS011;48509;52.122;5.250;2022-08-02T09:40:13;16.2;;;11.1;;
62457;SDS011;48509;52.122;5.250;2022-08-02T09:43:54;15.3;;;11.0;;
62457;SDS011;48509;52.122;5.250;2022-08-02T09:45:41;16.7;;;10.1;;
62457;SDS011;48509;52.122;5.250;2022-08-02T09:47:28;14.7;;;11.1;;
62457;SDS011;48509;52.122;5.250;2022-08-02T09:49:17;14.1;;;10.0;;
62457;SDS011;48509;52.122;5.250;2022-08-02T09:51:04;14.3;;;9.31;;
62457;SDS011;48509;52.122;5.250;2022-08-02T09:52:53;19.3;;;9.4;;
62457;SDS011;48509;52.122;5.250;2022-08-02T09:56:38;14.2;;;10.4;;
62457;SDS011;48509;52.122;5.250;2022-08-02T09:58:29;10.7;;;8.31;;
62457;SDS011;48509;52.122;5.250;2022-08-02T10:00:15;14.1;;;10.3;;
62457;SDS011;48509;52.122;5.250;2022-08-02T10:02:04;14.7;;;9.1;;
62457;SDS011;48509;52.122;5.250;2022-08-02T10:03:56;15.1;;;9.6;;
62457;SDS011;48509;52.122;5.250;2022-08-02T10:05:46;14.4;;;9.1;;
62457;SDS011;48509;52.122;5.250;2022-08-02T10:07:34;12.8;;;9.4;;
62457;SDS011;48509;52.122;5.250;2022-08-02T10:11:07;12.9;;;8.81;;
62457;SDS011;48509;52.122;5.250;2022-08-02T10:12:54;14.5;;;8.71;;
62457;SDS011;48509;52.122;5.250;2022-08-02T10:14:41;11.8;;;8.31;;
62457;SDS011;48509;52.122;5.250;2022-08-02T10:16:28;12.2;;;8.6;;
62457;SDS011;48509;52.122;5.250;2022-08-02T10:18:19;11.9;;;8.5;;
62457;SDS011;48509;52.122;5.250;2022-08-02T10:20:05;9.71;;;8.0;;
62457;SDS011;48509;52.122;5.250;2022-08-02T10:23:43;9.9;;;7.9;;
62457;SDS011;48509;52.122;5.250;2022-08-02T10:25:31;9.71;;;7.0;;
62457;SDS011;48509;52.122;5.250;2022-08-02T10:27:24;11.7;;;6.8;;
62457;SDS011;48509;52.122;5.250;2022-08-02T10:29:15;8.71;;;7.0;;
62457;SDS011;48509;52.122;5.250;2022-08-02T10:31:04;8.31;;;5.5;;
62457;SDS011;48509;52.122;5.250;2022-08-02T10:32:52;7.5;;;5.8;;
62457;SDS011;48509;52.122;5.250;2022-08-02T10:34:44;10.8;;;6.2;;
62457;SDS011;48509;52.122;5.250;2022-08-02T10:38:29;8.2;;;5.9;;
62457;SDS011;48509;52.122;5.250;2022-08-02T10:40:30;9.21;;;4.61;;
62457;SDS011;48509;52.122;5.250;2022-08-02T10:42:44;6.9;;;4.61;;
62457;SDS011;48509;52.122;5.250;2022-08-02T10:44:33;5.3;;;4.41;;
62457;SDS011;48509;52.122;5.250;2022-08-02T10:46:22;8.31;;;4.61;;
62457;SDS011;48509;52.122;5.250;2022-08-02T10:48:14;9.1;;;5.6;;
62457;SDS011;48509;52.122;5.250;2022-08-02T10:50:03;5.7;;;4.61;;
62457;SDS011;48509;52.122;5.250;2022-08-02T10:52:06;6.6;;;4.3;;
62457;SDS011;48509;52.122;5.250;2022-08-02T10:54:09;8.2;;;5.2;;
62457;SDS011;48509;52.122;5.250;2022-08-02T10:55:56;6.7;;;4.61;;
62457;SDS011;48509;52.122;5.250;2022-08-02T10:57:44;6.6;;;4.1;;
62457;SDS011;48509;52.122;5.250;2022-08-02T11:01:28;6.1;;;4.5;;
62457;SDS011;48509;52.122;5.250;2022-08-02T11:03:47;5.8;;;4.41;;
62457;SDS011;48509;52.122;5.250;2022-08-02T11:05:34;5.8;;;3.8;;
62457;SDS011;48509;52.122;5.250;2022-08-02T11:07:31;4.1;;;2.9;;
62457;SDS011;48509;52.122;5.250;2022-08-02T11:09:28;4.2;;;3.0;;
62457;SDS011;48509;52.122;5.250;2022-08-02T11:11:15;3.4;;;2.5;;
62457;SDS011;48509;52.122;5.250;2022-08-02T11:13:05;4.5;;;3.2;;
62457;SDS011;48509;52.122;5.250;2022-08-02T11:14:57;7.8;;;3.0;;
62457;SDS011;48509;52.122;5.250;2022-08-02T11:17:18;5.2;;;2.9;;
62457;SDS011;48509;52.122;5.250;2022-08-02T11:19:05;3.9;;;2.7;;
62457;SDS011;48509;52.122;5.250;2022-08-02T11:21:24;3.2;;;2.4;;
62457;SDS011;48509;52.122;5.250;2022-08-02T11:23:43;4.61;;;2.9;;
62457;SDS011;48509;52.122;5.250;2022-08-02T11:25:31;3.7;;;2.4;;
62457;SDS011;48509;52.122;5.250;2022-08-02T11:27:19;3.7;;;2.4;;
62457;SDS011;48509;52.122;5.250;2022-08-02T11:29:07;5.8;;;2.7;;
62457;SDS011;48509;52.122;5.250;2022-08-02T11:32:44;2.8;;;2.4;;
62457;SDS011;48509;52.122;5.250;2022-08-02T11:34:32;5.6;;;2.7;;
62457;SDS011;48509;52.122;5.250;2022-08-02T11:36:19;5.7;;;2.4;;
62457;SDS011;48509;52.122;5.250;2022-08-02T11:38:14;3.5;;;1.8;;
62457;SDS011;48509;52.122;5.250;2022-08-02T11:40:03;3.3;;;2.1;;
62457;SDS011;48509;52.122;5.250;2022-08-02T11:41:54;6.6;;;1.9;;
62457;SDS011;48509;52.122;5.250;2022-08-02T11:43:43;1.7;;;1.6;;
62457;SDS011;48509;52.122;5.250;2022-08-02T11:47:19;2.6;;;1.8;;
62457;SDS011;48509;52.122;5.250;2022-08-02T11:49:13;2.6;;;1.7;;
62457;SDS011;48509;52.122;5.250;2022-08-02T11:51:03;2.7;;;1.7;;
62457;SDS011;48509;52.122;5.250;2022-08-02T11:52:52;4.41;;;2.4;;
62457;SDS011;48509;52.122;5.250;2022-08-02T11:54:40;2.5;;;1.8;;
62457;SDS011;48509;52.122;5.250;2022-08-02T11:56:28;2.21;;;1.5;;
62457;SDS011;48509;52.122;5.250;2022-08-02T12:00:04;3.1;;;1.8;;
62457;SDS011;48509;52.122;5.250;2022-08-02T12:02:00;4.41;;;1.6;;
62457;SDS011;48509;52.122;5.250;2022-08-02T12:03:50;2.6;;;2.0;;
62457;SDS011;48509;52.122;5.250;2022-08-02T12:05:36;3.3;;;2.1;;
62457;SDS011;48509;52.122;5.250;2022-08-02T12:07:24;3.0;;;1.9;;
62457;SDS011;48509;52.122;5.250;2022-08-02T12:09:13;2.31;;;1.6;;
62457;SDS011;48509;52.122;5.250;2022-08-02T12:11:01;3.0;;;1.6;;
62457;SDS011;48509;52.122;5.250;2022-08-02T12:14:40;2.31;;;1.4;;
62457;SDS011;48509;52.122;5.250;2022-08-02T12:19:32;3.7;;;1.7;;
62457;SDS011;48509;52.122;5.250;2022-08-02T12:21:20;3.6;;;1.8;;
62457;SDS011;48509;52.122;5.250;2022-08-02T12:24:56;2.6;;;1.9;;
62457;SDS011;48509;52.122;5.250;2022-08-02T12:26:43;5.0;;;1.8;;
62457;SDS011;48509;52.122;5.250;2022-08-02T12:28:33;4.1;;;1.6;;
62457;SDS011;48509;52.122;5.250;2022-08-02T12:30:20;2.6;;;1.7;;
62457;SDS011;48509;52.122;5.250;2022-08-02T12:32:06;5.5;;;1.8;;
62457;SDS011;48509;52.122;5.250;2022-08-02T12:33:53;4.1;;;2.0;;
62457;SDS011;48509;52.122;5.250;2022-08-02T12:37:26;2.8;;;2.0;;
62457;SDS011;48509;52.122;5.250;2022-08-02T12:39:12;3.7;;;1.7;;
62457;SDS011;48509;52.122;5.250;2022-08-02T12:41:10;3.9;;;1.7;;
62457;SDS011;48509;52.122;5.250;2022-08-02T12:43:00;4.5;;;2.0;;
62457;SDS011;48509;52.122;5.250;2022-08-02T12:44:49;2.0;;;1.8;;
62457;SDS011;48509;52.122;5.250;2022-08-02T12:46:38;4.41;;;2.4;;
62457;SDS011;48509;52.122;5.250;2022-08-02T12:50:23;7.3;;;2.1;;
62457;SDS011;48509;52.122;5.250;2022-08-02T12:52:18;2.9;;;1.7;;
62457;SDS011;48509;52.122;5.250;2022-08-02T12:54:09;2.8;;;2.21;;
62457;SDS011;48509;52.122;5.250;2022-08-02T12:55:58;6.0;;;3.0;;
62457;SDS011;48509;52.122;5.250;2022-08-02T12:57:50;7.7;;;2.6;;